Time;durP1;ratioP1;P1;durP2;ratioP2;P2;SDS_P1;SDS_P2;PMS_P1;PMS_P2;Temp;Humidity;BMP_temperature;BMP_pressure;BME280_temperature;BME280_humidity;BME280_pressure;Samples;Min_cycle;Max_cycle;Signal;HPM_P1;HPM_P2
2022/07/09 00:00:20;;;;;;;7.07;3.17;;;14.60;99.90;;;;;;5053792;28;20029;-77
2022/07/09 00:02:46;;;;;;;7.97;3.38;;;14.60;99.90;;;;;;5053607;28;20111;-71
2022/07/09 00:05:13;;;;;;;8.23;3.63;;;14.60;99.90;;;;;;5053650;28;20029;-70
2022/07/09 00:07:39;;;;;;;7.40;3.80;;;14.50;99.90;;;;;;5053603;28;20013;-77
2022/07/09 00:10:05;;;;;;;5.63;3.55;;;14.60;99.90;;;;;;5052461;28;20039;-77
2022/07/09 00:12:31;;;;;;;6.25;3.40;;;14.60;99.90;;;;;;5053563;28;20040;-77
2022/07/09 00:14:56;;;;;;;10.18;3.97;;;14.60;99.90;;;;;;5052979;28;20021;-70
2022/07/09 00:17:22;;;;;;;8.63;3.85;;;14.50;99.90;;;;;;5053330;28;20474;-70
2022/07/09 00:19:48;;;;;;;8.05;3.05;;;14.60;99.90;;;;;;5052090;28;20394;-71
2022/07/09 00:22:13;;;;;;;9.80;4.32;;;14.60;99.90;;;;;;5052200;28;20100;-77
2022/07/09 00:24:39;;;;;;;7.32;3.70;;;14.50;99.90;;;;;;5053302;28;20033;-77
2022/07/09 00:27:05;;;;;;;11.90;4.05;;;14.50;99.90;;;;;;5053365;28;20053;-71
2022/07/09 00:29:31;;;;;;;5.93;3.40;;;14.40;99.90;;;;;;5053401;28;20028;-70
2022/07/09 00:31:56;;;;;;;5.05;3.00;;;14.40;99.90;;;;;;5051833;28;20417;-70
2022/07/09 00:34:22;;;;;;;3.92;3.35;;;14.30;99.90;;;;;;5051972;28;20036;-77
2022/07/09 00:36:48;;;;;;;9.52;4.10;;;14.30;99.90;;;;;;5053350;28;20386;-70
2022/07/09 00:39:13;;;;;;;8.10;4.00;;;14.30;99.90;;;;;;5051594;28;20543;-70
2022/07/09 00:41:39;;;;;;;10.32;4.18;;;14.30;99.90;;;;;;5051983;28;20057;-71
2022/07/09 00:44:05;;;;;;;7.13;3.75;;;14.30;99.90;;;;;;5052807;28;20028;-77
2022/07/09 00:46:30;;;;;;;7.30;3.95;;;14.20;99.90;;;;;;5053280;28;20033;-77
2022/07/09 00:48:56;;;;;;;9.57;4.35;;;14.20;99.90;;;;;;5052865;28;20386;-77
2022/07/09 00:51:22;;;;;;;7.53;4.03;;;14.20;99.90;;;;;;5051849;28;20502;-70
2022/07/09 00:53:49;;;;;;;14.30;4.25;;;14.00;99.90;;;;;;5051514;28;20063;-77
2022/07/09 00:56:15;;;;;;;5.50;4.30;;;14.00;99.90;;;;;;5053031;28;20025;-77
2022/07/09 00:58:43;;;;;;;5.82;4.30;;;14.00;99.90;;;;;;5053150;28;20025;-71
2022/07/09 01:01:09;;;;;;;8.20;4.40;;;14.00;99.90;;;;;;5052757;28;20033;-70
2022/07/09 01:03:35;;;;;;;9.40;4.10;;;14.00;99.90;;;;;;5052946;28;20028;-78
2022/07/09 01:06:01;;;;;;;4.93;3.97;;;14.10;99.90;;;;;;5053305;28;20025;-71
2022/07/09 01:08:27;;;;;;;4.25;3.85;;;14.10;99.90;;;;;;5051634;28;20390;-77
2022/07/09 01:10:53;;;;;;;8.63;4.10;;;14.10;99.90;;;;;;5051583;28;20024;-78
2022/07/09 01:13:19;;;;;;;6.20;4.22;;;14.10;99.90;;;;;;5052830;28;20359;-77
2022/07/09 01:15:45;;;;;;;7.28;4.10;;;14.10;99.90;;;;;;5052959;28;20079;-71
2022/07/09 01:18:11;;;;;;;11.00;4.60;;;14.00;99.90;;;;;;5052873;28;20102;-77
2022/07/09 01:20:37;;;;;;;7.85;4.38;;;14.00;99.90;;;;;;5052721;28;20027;-70
2022/07/09 01:23:03;;;;;;;5.63;3.92;;;14.00;99.90;;;;;;5052780;28;20104;-71
2022/07/09 01:25:36;;;;;;;10.95;4.55;;;14.00;99.90;;;;;;5051553;28;20029;-70
2022/07/09 01:28:02;;;;;;;;;;;13.90;99.90;;;;;;5053363;28;20029;-70
2022/07/09 01:30:28;;;;;;;6.90;5.05;;;13.90;99.90;;;;;;5052751;28;19904;-77
2022/07/09 01:32:54;;;;;;;5.10;4.32;;;14.00;99.90;;;;;;5052601;28;20082;-71
2022/07/09 01:35:21;;;;;;;10.00;4.55;;;13.90;99.90;;;;;;5051234;28;20147;-70
2022/07/09 01:37:47;;;;;;;7.65;4.30;;;13.90;99.90;;;;;;5052717;28;20374;-70
2022/07/09 01:40:13;;;;;;;7.40;4.40;;;14.00;99.90;;;;;;5051338;28;20063;-78
2022/07/09 01:42:39;;;;;;;9.07;5.20;;;14.00;99.90;;;;;;5052546;28;20036;-77
2022/07/09 01:45:05;;;;;;;7.35;5.18;;;13.90;99.90;;;;;;5052471;28;20021;-71
2022/07/09 01:47:31;;;;;;;7.18;4.82;;;13.90;99.90;;;;;;5051256;28;20108;-71
2022/07/09 01:49:56;;;;;;;8.30;4.75;;;13.90;99.90;;;;;;5051158;28;20613;-77
2022/07/09 01:52:22;;;;;;;10.20;4.57;;;13.90;99.90;;;;;;5052437;28;20037;-70
2022/07/09 01:54:48;;;;;;;9.43;4.95;;;13.90;99.90;;;;;;5053075;28;20021;-71
2022/07/09 01:57:14;;;;;;;9.45;5.10;;;13.80;99.90;;;;;;5055613;28;20033;-71
2022/07/09 01:59:39;;;;;;;6.53;5.25;;;13.80;99.90;;;;;;5055992;28;20021;-77
2022/07/09 02:02:05;;;;;;;8.50;4.90;;;13.80;99.90;;;;;;5071673;28;20021;-77
2022/07/09 02:04:31;;;;;;;6.90;4.85;;;13.80;99.90;;;;;;5063810;28;20037;-70
2022/07/09 02:06:57;;;;;;;9.45;5.30;;;13.80;99.90;;;;;;5047588;28;20068;-77
2022/07/09 02:09:23;;;;;;;6.85;4.45;;;13.80;99.90;;;;;;5044997;28;20029;-77
2022/07/09 02:11:49;;;;;;;5.88;4.93;;;13.70;99.90;;;;;;5055684;28;20112;-77
2022/07/09 02:14:15;;;;;;;11.80;5.97;;;13.70;99.90;;;;;;5055800;28;20031;-71
2022/07/09 02:16:40;;;;;;;7.50;4.57;;;13.70;99.90;;;;;;5054329;28;20086;-77
2022/07/09 02:19:06;;;;;;;12.48;5.72;;;13.70;99.90;;;;;;5055801;28;20071;-77
2022/07/09 02:21:33;;;;;;;9.38;5.45;;;13.70;99.90;;;;;;5055910;28;20068;-78
2022/07/09 02:23:58;;;;;;;7.25;5.88;;;13.70;99.90;;;;;;5055557;28;20063;-70
2022/07/09 02:26:29;;;;;;;14.25;5.63;;;13.60;99.90;;;;;;5054225;28;20060;-76
2022/07/09 02:29:01;;;;;;;7.13;5.13;;;13.50;99.90;;;;;;5054187;28;20021;-70
2022/07/09 02:31:27;;;;;;;7.40;5.90;;;13.50;99.90;;;;;;5053924;28;20057;-70
2022/07/09 02:33:53;;;;;;;10.95;6.03;;;13.50;99.90;;;;;;5055311;28;20489;-77
2022/07/09 02:36:19;;;;;;;6.68;5.78;;;13.50;99.90;;;;;;5055221;28;20017;-76
2022/07/09 02:38:45;;;;;;;9.93;6.05;;;13.40;99.90;;;;;;5055191;28;20498;-77
2022/07/09 02:41:11;;;;;;;12.90;5.68;;;13.40;99.90;;;;;;5053817;28;20079;-70
2022/07/09 02:43:38;;;;;;;12.38;7.25;;;13.40;99.90;;;;;;5053854;28;20109;-71
2022/07/09 02:46:04;;;;;;;9.07;6.38;;;13.40;99.90;;;;;;5055231;28;20025;-77
2022/07/09 02:48:31;;;;;;;7.72;6.13;;;13.30;99.90;;;;;;5055274;28;20025;-71
2022/07/09 02:50:57;;;;;;;7.10;5.15;;;13.30;99.90;;;;;;5053757;28;20112;-77
2022/07/09 02:53:22;;;;;;;7.90;5.43;;;13.20;99.90;;;;;;5055270;28;20095;-71
2022/07/09 02:55:48;;;;;;;6.50;5.32;;;13.30;99.90;;;;;;5054693;28;20075;-77
2022/07/09 02:58:14;;;;;;;8.48;5.88;;;13.20;99.90;;;;;;5054880;28;20500;-71
2022/07/09 03:00:40;;;;;;;11.18;5.63;;;13.20;99.90;;;;;;5054761;28;20024;-70
2022/07/09 03:03:07;;;;;;;10.52;6.07;;;13.20;99.90;;;;;;5054891;28;20056;-77
2022/07/09 03:05:33;;;;;;;7.00;6.03;;;13.10;99.90;;;;;;5054599;28;20057;-70
2022/07/09 03:07:59;;;;;;;9.63;5.95;;;13.20;99.90;;;;;;5054733;28;20095;-77
2022/07/09 03:10:25;;;;;;;13.35;7.05;;;13.20;99.90;;;;;;5054694;28;20067;-77
2022/07/09 03:12:51;;;;;;;10.20;5.88;;;13.20;99.90;;;;;;5054541;28;20073;-71
2022/07/09 03:15:17;;;;;;;13.43;5.85;;;13.20;99.90;;;;;;5054604;28;20827;-77
2022/07/09 03:17:47;;;;;;;8.77;5.25;;;13.20;99.90;;;;;;5053227;28;20017;-77
2022/07/09 03:20:13;;;;;;;7.43;5.63;;;13.20;99.90;;;;;;5053146;28;20021;-70
2022/07/09 03:22:40;;;;;;;9.15;5.55;;;13.20;99.90;;;;;;5054391;28;20368;-77
2022/07/09 03:25:07;;;;;;;8.98;6.00;;;13.20;99.90;;;;;;5054361;28;20025;-70
2022/07/09 03:27:34;;;;;;;6.72;4.97;;;13.10;99.90;;;;;;5052927;28;20119;-77
2022/07/09 03:29:59;;;;;;;12.85;5.88;;;13.10;99.90;;;;;;5054269;28;20032;-70
2022/07/09 03:32:26;;;;;;;9.38;6.28;;;13.10;99.90;;;;;;5054142;28;20052;-73
2022/07/09 03:34:52;;;;;;;11.55;6.32;;;13.20;99.90;;;;;;5052860;28;20040;-70
2022/07/09 03:37:18;;;;;;;11.45;6.38;;;13.40;99.90;;;;;;5054284;28;20033;-71
2022/07/09 03:39:47;;;;;;;8.60;5.30;;;13.60;99.90;;;;;;5052864;28;20074;-77
2022/07/09 03:42:13;;;;;;;7.88;5.50;;;13.70;99.90;;;;;;5054120;28;20013;-71
2022/07/09 03:44:39;;;;;;;8.77;5.35;;;14.00;99.90;;;;;;5052760;28;20055;-77
2022/07/09 03:47:06;;;;;;;7.55;5.45;;;14.10;99.90;;;;;;5053983;28;20501;-72
2022/07/09 03:49:32;;;;;;;7.97;5.18;;;14.30;99.90;;;;;;5052663;28;20029;-77
2022/07/09 03:51:58;;;;;;;5.40;4.50;;;14.50;99.90;;;;;;5052547;28;20577;-78
2022/07/09 03:54:24;;;;;;;12.13;5.45;;;14.70;99.90;;;;;;5053848;28;20052;-70
2022/07/09 03:56:50;;;;;;;7.07;4.22;;;14.90;99.90;;;;;;5052423;28;20475;-78
2022/07/09 03:59:16;;;;;;;7.97;5.18;;;15.10;99.90;;;;;;5053839;28;20063;-71
2022/07/09 04:01:42;;;;;;;10.23;4.35;;;15.20;99.90;;;;;;5053623;28;20051;-78
2022/07/09 04:04:08;;;;;;;7.93;4.13;;;15.20;99.90;;;;;;5052397;28;20418;-71
2022/07/09 04:06:34;;;;;;;6.45;4.30;;;15.30;99.90;;;;;;5052434;28;20013;-77
2022/07/09 04:09:04;;;;;;;7.65;4.78;;;15.30;99.90;;;;;;5053584;28;20025;-78
2022/07/09 04:11:33;;;;;;;5.63;4.35;;;15.30;99.90;;;;;;5053462;28;20398;-78
2022/07/09 04:14:00;;;;;;;10.93;4.53;;;15.30;99.90;;;;;;5053589;28;20474;-78
2022/07/09 04:16:27;;;;;;;7.22;4.25;;;15.40;99.90;;;;;;5053166;28;20021;-71
2022/07/09 04:18:52;;;;;;;7.45;4.22;;;15.60;99.90;;;;;;5051645;28;20024;-71
2022/07/09 04:21:21;;;;;;;8.82;5.05;;;15.70;99.90;;;;;;5053464;28;20382;-78
2022/07/09 04:23:50;;;;;;;7.45;4.00;;;15.70;99.90;;;;;;5053388;28;20028;-78
2022/07/09 04:26:18;;;;;;;5.63;4.07;;;15.70;99.90;;;;;;5052062;28;20028;-78
2022/07/09 04:28:44;;;;;;;6.97;4.53;;;15.70;99.90;;;;;;5053314;28;20025;-71
2022/07/09 04:31:10;;;;;;;5.55;4.43;;;15.70;99.90;;;;;;5053299;28;20079;-78
2022/07/09 04:33:36;;;;;;;6.95;4.00;;;15.80;99.90;;;;;;5051875;28;20454;-78
2022/07/09 04:36:02;;;;;;;8.40;4.38;;;15.90;99.90;;;;;;5053291;28;20098;-78
2022/07/09 04:38:28;;;;;;;5.22;4.32;;;15.80;99.90;;;;;;5053328;28;20024;-71
2022/07/09 04:40:54;;;;;;;7.30;4.22;;;15.70;99.90;;;;;;5053145;28;20021;-71
2022/07/09 04:43:21;;;;;;;9.40;4.05;;;15.40;99.90;;;;;;5053174;28;20359;-71
2022/07/09 04:45:46;;;;;;;5.93;3.95;;;15.30;99.90;;;;;;5052133;28;20500;-79
2022/07/09 04:48:12;;;;;;;5.43;4.07;;;15.20;99.90;;;;;;5051823;28;20021;-72
2022/07/09 04:50:38;;;;;;;7.57;4.28;;;15.10;99.90;;;;;;5053211;28;20025;-78
2022/07/09 04:53:04;;;;;;;8.15;4.15;;;15.00;99.90;;;;;;5052952;28;20029;-72
2022/07/09 04:55:30;;;;;;;10.20;4.28;;;15.00;99.90;;;;;;5053036;28;20032;-70
2022/07/09 04:57:55;;;;;;;9.68;4.95;;;15.00;99.90;;;;;;5052905;28;20025;-71
2022/07/09 05:00:21;;;;;;;10.15;3.50;;;15.00;99.90;;;;;;5053126;28;20085;-78
2022/07/09 05:02:47;;;;;;;7.93;3.28;;;14.80;99.90;;;;;;5052961;28;20489;-71
2022/07/09 05:05:13;;;;;;;7.43;3.30;;;14.80;99.90;;;;;;5051228;28;20147;-78
2022/07/09 05:07:40;;;;;;;4.38;2.95;;;14.80;99.90;;;;;;5052911;28;20386;-72
2022/07/09 05:10:06;;;;;;;5.53;3.17;;;14.70;99.90;;;;;;5052969;28;20393;-71
2022/07/09 05:12:32;;;;;;;9.25;3.03;;;14.80;99.90;;;;;;5052830;28;20045;-71
2022/07/09 05:14:57;;;;;;;3.53;2.90;;;14.80;99.90;;;;;;5052754;28;20031;-71
2022/07/09 05:17:23;;;;;;;5.45;2.67;;;14.90;99.90;;;;;;5051501;28;20481;-72
2022/07/09 05:19:49;;;;;;;6.50;3.47;;;15.00;99.90;;;;;;5052829;28;20029;-71
2022/07/09 05:22:16;;;;;;;7.13;2.65;;;15.00;99.90;;;;;;5052658;28;20409;-71
2022/07/09 05:24:42;;;;;;;5.45;2.88;;;15.10;99.90;;;;;;5051529;28;20036;-73
2022/07/09 05:27:09;;;;;;;6.30;2.67;;;15.30;99.90;;;;;;5043460;28;20053;-71
2022/07/09 05:29:35;;;;;;;4.78;2.92;;;15.20;99.90;;;;;;5033099;28;20479;-78
2022/07/09 05:32:01;;;;;;;3.15;2.53;;;15.00;99.90;;;;;;5036348;28;20057;-78
2022/07/09 05:34:26;;;;;;;4.93;3.08;;;15.10;99.90;;;;;;5037491;28;20387;-77
2022/07/09 05:36:52;;;;;;;6.60;3.38;;;15.10;99.90;;;;;;5055011;28;20028;-78
2022/07/09 05:39:18;;;;;;;5.97;3.13;;;15.10;99.90;;;;;;5045630;28;20063;-78
2022/07/09 05:41:44;;;;;;;9.02;2.95;;;15.10;99.90;;;;;;5067876;28;20497;-71
2022/07/09 05:44:10;;;;;;;5.72;2.97;;;15.10;99.90;;;;;;5058836;28;20048;-70
2022/07/09 05:46:36;;;;;;;8.32;3.38;;;15.30;99.90;;;;;;5060704;28;20080;-70
2022/07/09 05:49:02;;;;;;;6.40;3.60;;;15.20;99.90;;;;;;5067735;28;20448;-78
2022/07/09 05:51:28;;;;;;;8.43;3.67;;;15.40;99.90;;;;;;5075047;28;20178;-70
2022/07/09 05:53:54;;;;;;;6.05;3.25;;;15.30;99.90;;;;;;5059248;28;20108;-70
2022/07/09 05:56:20;;;;;;;6.32;3.00;;;15.30;99.90;;;;;;5049503;28;20834;-70
2022/07/09 05:58:46;;;;;;;6.82;3.33;;;15.20;99.90;;;;;;5043942;28;20035;-71
2022/07/09 06:01:13;;;;;;;6.28;3.50;;;15.30;99.90;;;;;;5044094;28;20041;-71
2022/07/09 06:03:40;;;;;;;5.78;3.42;;;15.30;99.90;;;;;;5035527;28;20349;-71
2022/07/09 06:06:06;;;;;;;9.25;3.35;;;15.30;99.90;;;;;;5047420;28;20036;-71
2022/07/09 06:08:34;;;;;;;4.95;2.97;;;15.50;99.90;;;;;;5043360;28;20091;-71
2022/07/09 06:11:02;;;;;;;7.95;3.40;;;15.50;99.90;;;;;;5044074;28;20017;-70
2022/07/09 06:13:28;;;;;;;7.22;3.72;;;15.50;99.90;;;;;;5038580;28;20078;-78
2022/07/09 06:15:54;;;;;;;7.47;3.40;;;15.50;99.90;;;;;;5041463;28;20421;-70
2022/07/09 06:18:21;;;;;;;6.72;3.25;;;15.50;99.90;;;;;;5045030;28;20123;-71
2022/07/09 06:20:47;;;;;;;13.20;5.07;;;15.70;99.90;;;;;;5045940;28;20044;-70
2022/07/09 06:23:13;;;;;;;8.43;4.28;;;15.70;99.90;;;;;;5049228;28;20040;-71
2022/07/09 06:25:39;;;;;;;5.65;3.90;;;15.70;99.90;;;;;;5048192;28;20031;-71
2022/07/09 06:28:05;;;;;;;8.85;4.32;;;15.80;99.90;;;;;;5069336;28;20094;-71
2022/07/09 06:30:32;;;;;;;9.13;5.40;;;15.80;99.90;;;;;;5054970;28;20029;-71
2022/07/09 06:32:58;;;;;;;10.60;4.00;;;15.90;99.90;;;;;;5065154;28;20090;-72
2022/07/09 06:35:24;;;;;;;9.10;4.40;;;15.90;99.90;;;;;;5042865;28;20026;-77
2022/07/09 06:37:49;;;;;;;9.60;4.57;;;16.00;99.90;;;;;;5047664;28;20099;-70
2022/07/09 06:40:15;;;;;;;12.15;5.15;;;16.00;99.90;;;;;;5057450;28;20103;-71
2022/07/09 06:42:41;;;;;;;7.18;3.95;;;16.20;99.90;;;;;;5068734;28;20041;-71
2022/07/09 06:45:08;;;;;;;5.78;3.70;;;16.30;99.90;;;;;;5069439;28;20021;-70
2022/07/09 06:47:34;;;;;;;11.23;4.50;;;16.50;99.90;;;;;;5058031;28;20033;-71
2022/07/09 06:49:59;;;;;;;9.23;5.22;;;16.50;99.90;;;;;;5073909;28;20027;-70
2022/07/09 06:52:25;;;;;;;11.82;5.55;;;16.90;99.90;;;;;;5073008;28;20493;-76
2022/07/09 06:54:51;;;;;;;6.50;3.28;;;17.10;99.90;;;;;;5073648;28;20073;-77
2022/07/09 06:57:17;;;;;;;10.13;4.13;;;17.50;99.90;;;;;;5072439;28;20040;-75
2022/07/09 06:59:45;;;;;;;5.97;3.05;;;17.70;99.90;;;;;;5069783;28;20025;-77
2022/07/09 07:02:11;;;;;;;6.18;2.33;;;17.70;95.30;;;;;;5069832;28;20591;-70
2022/07/09 07:04:37;;;;;;;8.35;3.85;;;17.80;93.60;;;;;;5072093;28;20063;-71
2022/07/09 07:07:03;;;;;;;7.32;3.00;;;18.00;93.10;;;;;;5043415;28;20080;-71
2022/07/09 07:09:29;;;;;;;6.10;3.20;;;18.00;95.70;;;;;;5073166;28;20040;-76
2022/07/09 07:11:55;;;;;;;7.85;3.97;;;18.00;94.60;;;;;;5071966;28;20482;-71
2022/07/09 07:14:20;;;;;;;5.05;2.25;;;18.00;94.30;;;;;;5060569;28;20108;-70
2022/07/09 07:16:46;;;;;;;6.82;2.60;;;17.90;91.70;;;;;;5067598;28;20028;-71
2022/07/09 07:19:12;;;;;;;9.00;3.42;;;17.80;91.60;;;;;;5072025;28;20458;-71
2022/07/09 07:21:38;;;;;;;5.97;2.40;;;17.90;92.50;;;;;;5072780;28;20031;-71
2022/07/09 07:24:05;;;;;;;2.83;1.88;;;18.00;88.70;;;;;;5072769;28;20047;-71
2022/07/09 07:26:30;;;;;;;2.75;1.73;;;18.00;88.40;;;;;;5071618;28;20500;-71
2022/07/09 07:28:56;;;;;;;6.88;3.08;;;18.00;92.40;;;;;;5064906;28;20120;-70
2022/07/09 07:31:23;;;;;;;2.33;2.13;;;17.90;94.80;;;;;;5060398;28;20045;-71
2022/07/09 07:33:49;;;;;;;3.70;2.38;;;17.80;90.20;;;;;;5071867;28;20036;-70
2022/07/09 07:36:15;;;;;;;3.38;2.00;;;17.80;88.30;;;;;;5053022;28;20074;-71
2022/07/09 07:38:40;;;;;;;3.60;1.88;;;17.70;87.20;;;;;;5070832;28;20029;-71
2022/07/09 07:41:06;;;;;;;8.13;2.15;;;17.50;90.40;;;;;;5072876;28;20024;-71
2022/07/09 07:43:32;;;;;;;3.75;2.03;;;17.50;90.60;;;;;;5071192;28;20443;-71
2022/07/09 07:45:57;;;;;;;8.45;2.80;;;17.40;91.70;;;;;;5072319;28;20466;-71
2022/07/09 07:48:23;;;;;;;4.70;2.90;;;17.50;98.80;;;;;;5061335;28;20409;-71
2022/07/09 07:50:49;;;;;;;5.00;2.28;;;17.50;93.80;;;;;;5072442;28;20021;-71
2022/07/09 07:53:15;;;;;;;3.08;2.53;;;17.60;94.80;;;;;;5070727;28;20037;-76
2022/07/09 07:55:40;;;;;;;4.68;3.00;;;17.80;92.20;;;;;;5070958;28;20066;-77
2022/07/09 07:58:06;;;;;;;4.38;2.42;;;17.90;92.40;;;;;;5072628;28;20029;-77
2022/07/09 08:00:31;;;;;;;4.70;3.03;;;18.10;88.40;;;;;;5069456;28;20401;-70
2022/07/09 08:02:57;;;;;;;4.22;3.17;;;18.40;89.60;;;;;;5071232;28;20497;-70
2022/07/09 08:05:23;;;;;;;3.65;2.92;;;18.90;87.20;;;;;;5071663;28;20016;-70
2022/07/09 08:07:48;;;;;;;10.70;3.00;;;18.90;81.50;;;;;;5070666;28;20047;-71
2022/07/09 08:10:14;;;;;;;2.63;2.13;;;19.00;77.40;;;;;;5072300;28;20021;-71
2022/07/09 08:12:40;;;;;;;3.42;1.95;;;18.80;76.30;;;;;;5046742;28;20073;-71
2022/07/09 08:15:06;;;;;;;3.10;2.30;;;19.00;77.60;;;;;;5059984;28;20458;-70
2022/07/09 08:17:31;;;;;;;3.80;2.60;;;18.90;75.00;;;;;;5072005;28;20037;-70
2022/07/09 08:19:57;;;;;;;5.97;3.28;;;18.90;78.60;;;;;;5072082;28;20032;-71
2022/07/09 08:22:23;;;;;;;3.03;2.30;;;19.10;77.80;;;;;;5070647;28;20025;-71
2022/07/09 08:24:48;;;;;;;8.05;2.97;;;19.10;78.60;;;;;;5071917;28;20032;-71
2022/07/09 08:27:14;;;;;;;2.70;2.50;;;19.40;82.20;;;;;;5072321;28;20546;-71
2022/07/09 08:29:40;;;;;;;4.22;2.45;;;19.50;79.80;;;;;;5053061;28;20033;-70
2022/07/09 08:32:06;;;;;;;3.25;2.90;;;19.50;76.90;;;;;;5070836;28;20053;-71
2022/07/09 08:34:31;;;;;;;5.43;2.65;;;19.30;75.60;;;;;;5068969;28;20401;-70
2022/07/09 08:36:57;;;;;;;4.43;2.40;;;19.30;75.60;;;;;;5050756;28;20036;-70
2022/07/09 08:39:23;;;;;;;4.60;3.10;;;19.40;79.70;;;;;;5064555;28;20036;-70
2022/07/09 08:41:49;;;;;;;7.45;3.33;;;19.30;81.00;;;;;;5048670;28;20025;-71
2022/07/09 08:44:17;;;;;;;5.15;2.55;;;19.20;78.30;;;;;;5065291;28;20493;-71
2022/07/09 08:46:43;;;;;;;4.00;3.05;;;19.10;74.50;;;;;;5053123;28;20072;-71
2022/07/09 08:49:11;;;;;;;4.32;2.40;;;19.30;78.20;;;;;;5053813;28;20561;-71
2022/07/09 08:51:37;;;;;;;3.03;2.83;;;19.70;76.80;;;;;;5051613;28;20025;-70
2022/07/09 08:54:03;;;;;;;3.78;3.00;;;19.90;76.60;;;;;;5051588;28;20040;-70
2022/07/09 08:56:29;;;;;;;1.98;1.85;;;20.00;75.80;;;;;;5053877;28;20021;-71
2022/07/09 08:58:54;;;;;;;6.25;2.40;;;19.90;71.50;;;;;;5053280;28;20045;-70
2022/07/09 09:01:20;;;;;;;3.00;2.33;;;20.10;73.90;;;;;;5060708;28;20025;-70
2022/07/09 09:03:46;;;;;;;7.50;3.03;;;19.90;72.50;;;;;;5056504;28;20040;-70
2022/07/09 09:06:13;;;;;;;3.67;2.53;;;19.80;76.00;;;;;;5054642;28;20021;-71
2022/07/09 09:08:43;;;;;;;2.95;2.75;;;19.40;75.90;;;;;;5057477;28;20068;-71
2022/07/09 09:11:20;;;;;;;4.10;2.33;;;19.00;76.10;;;;;;5052005;28;20035;-71
2022/07/09 09:13:47;;;;;;;3.75;2.75;;;18.70;80.50;;;;;;5053889;28;20032;-71
2022/07/09 09:16:16;;;;;;;5.93;3.30;;;18.50;83.30;;;;;;5066114;28;20111;-71
2022/07/09 09:18:43;;;;;;;4.75;2.90;;;18.40;86.90;;;;;;5048517;28;20558;-70
2022/07/09 09:21:10;;;;;;;4.53;3.45;;;18.20;86.20;;;;;;5058275;28;20112;-76
2022/07/09 09:23:40;;;;;;;7.00;3.40;;;18.30;89.20;;;;;;5069695;28;20043;-76
2022/07/09 09:26:16;;;;;;;5.80;3.95;;;18.40;91.40;;;;;;5074261;28;20024;-76
2022/07/09 09:28:49;;;;;;;7.18;4.45;;;18.50;90.10;;;;;;5072086;28;20482;-70
2022/07/09 09:31:31;;;;;;;7.07;4.25;;;18.70;91.50;;;;;;5066162;28;20163;-70
2022/07/09 09:34:08;;;;;;;11.13;4.90;;;18.70;86.10;;;;;;5074184;28;20029;-76
2022/07/09 09:36:39;;;;;;;7.93;5.30;;;18.90;90.50;;;;;;5059878;28;20273;-70
2022/07/09 09:39:25;;;;;;;6.45;5.10;;;19.20;84.50;;;;;;5073846;28;20167;-75
2022/07/09 09:41:52;;;;;;;5.93;4.53;;;19.40;82.10;;;;;;5046632;28;20146;-71
2022/07/09 09:44:24;;;;;;;7.90;4.60;;;19.70;79.10;;;;;;5049004;28;20435;-70
2022/07/09 09:46:50;;;;;;;8.70;5.10;;;20.20;75.80;;;;;;5046038;28;20100;-71
2022/07/09 09:49:16;;;;;;;6.28;4.45;;;20.40;74.80;;;;;;5055882;28;20241;-71
2022/07/09 09:51:51;;;;;;;7.00;4.97;;;20.40;72.20;;;;;;5058024;28;20536;-71
2022/07/09 09:54:18;;;;;;;3.90;3.50;;;21.00;75.40;;;;;;5064837;28;20040;-71
2022/07/09 09:56:44;;;;;;;10.60;3.92;;;20.90;66.40;;;;;;5073327;28;20546;-71
2022/07/09 09:59:11;;;;;;;8.23;4.30;;;20.50;67.70;;;;;;5064061;28;20402;-73
2022/07/09 10:01:39;;;;;;;5.70;4.18;;;20.70;69.00;;;;;;5063304;28;20052;-71
2022/07/09 10:04:05;;;;;;;7.93;4.60;;;20.60;68.00;;;;;;5073245;28;20040;-70
2022/07/09 10:06:36;;;;;;;6.68;4.00;;;20.30;69.00;;;;;;5073975;28;20023;-71
2022/07/09 10:09:04;;;;;;;4.65;4.25;;;20.10;69.80;;;;;;5047990;28;20029;-71
2022/07/09 10:11:46;;;;;;;6.65;4.15;;;20.20;71.90;;;;;;5074347;28;20055;-70
2022/07/09 10:14:15;;;;;;;;;;;20.20;71.10;;;;;;5073960;28;20037;-71
2022/07/09 10:16:41;;;;;;;5.88;3.90;;;20.40;75.60;;;;;;5066645;28;20041;-71
2022/07/09 10:19:07;;;;;;;8.23;4.05;;;20.50;70.40;;;;;;5073983;28;20495;-71
2022/07/09 10:21:34;;;;;;;6.10;4.63;;;20.50;73.20;;;;;;5073693;28;20031;-71
2022/07/09 10:23:59;;;;;;;4.60;4.00;;;20.70;69.70;;;;;;5054056;28;20075;-71
2022/07/09 10:26:44;;;;;;;7.88;4.10;;;20.70;69.80;;;;;;5049301;28;20016;-72
2022/07/09 10:29:27;;;;;;;5.63;3.00;;;20.80;70.70;;;;;;5033921;28;20029;-72
2022/07/09 10:31:54;;;;;;;4.18;3.58;;;20.80;66.80;;;;;;5046393;28;20128;-70
2022/07/09 10:34:45;;;;;;;3.95;3.38;;;20.70;67.80;;;;;;5054898;28;20025;-71
2022/07/09 10:37:10;;;;;;;6.35;2.10;;;21.00;69.20;;;;;;5055133;28;20029;-70
2022/07/09 10:39:36;;;;;;;3.17;2.20;;;21.20;62.30;;;;;;5054989;28;20021;-71
2022/07/09 10:42:04;;;;;;;3.75;2.60;;;21.50;60.50;;;;;;5053219;28;20017;-72
2022/07/09 10:44:38;;;;;;;4.38;2.58;;;21.20;61.50;;;;;;5054269;28;20033;-71
2022/07/09 10:47:06;;;;;;;6.93;3.10;;;21.20;62.80;;;;;;5054464;28;20017;-71
2022/07/09 10:49:36;;;;;;;5.68;3.08;;;20.90;61.10;;;;;;5044907;28;20030;-71
2022/07/09 10:52:03;;;;;;;3.05;2.20;;;20.80;63.10;;;;;;5043306;28;20444;-72
2022/07/09 10:54:29;;;;;;;6.72;2.90;;;20.60;63.10;;;;;;5043464;28;20025;-71
2022/07/09 10:56:56;;;;;;;8.27;3.35;;;20.50;65.50;;;;;;5041780;28;20021;-71
2022/07/09 10:59:23;;;;;;;5.60;3.25;;;20.20;66.70;;;;;;5043209;28;20466;-71
2022/07/09 11:01:51;;;;;;;4.28;3.28;;;20.20;67.70;;;;;;5044157;28;20072;-71
2022/07/09 11:04:28;;;;;;;5.03;3.03;;;20.30;67.90;;;;;;5042534;28;20021;-72
2022/07/09 11:06:54;;;;;;;6.28;4.00;;;20.60;68.60;;;;;;5043881;28;20025;-72
2022/07/09 11:09:20;;;;;;;5.38;3.00;;;20.50;66.50;;;;;;5041706;28;20040;-69
2022/07/09 11:11:47;;;;;;;15.52;3.00;;;20.30;67.10;;;;;;5038208;28;20044;-70
2022/07/09 11:14:13;;;;;;;6.20;3.05;;;20.10;68.00;;;;;;5050681;28;20044;-75
2022/07/09 11:16:39;;;;;;;3.63;3.20;;;19.90;68.50;;;;;;5044918;28;20021;-75
2022/07/09 11:19:19;;;;;;;4.00;3.33;;;19.90;68.90;;;;;;5046097;28;20088;-75
2022/07/09 11:21:45;;;;;;;5.65;2.63;;;19.90;68.90;;;;;;5047445;28;20105;-75
2022/07/09 11:24:16;;;;;;;4.57;2.50;;;20.00;68.10;;;;;;5056471;28;20057;-75
2022/07/09 11:26:42;;;;;;;5.53;2.95;;;20.30;67.70;;;;;;5048981;28;20028;-75
2022/07/09 11:29:09;;;;;;;3.63;2.53;;;20.50;67.90;;;;;;5050236;28;20465;-75
2022/07/09 11:31:36;;;;;;;6.75;3.50;;;20.70;65.90;;;;;;5054294;28;20098;-75
2022/07/09 11:34:11;;;;;;;4.38;2.58;;;20.80;66.30;;;;;;5050740;28;20557;-75
2022/07/09 11:36:45;;;;;;;4.18;2.65;;;20.90;66.90;;;;;;5055963;28;20401;-75
2022/07/09 11:39:33;;;;;;;5.45;1.95;;;21.10;66.80;;;;;;5053444;28;20040;-75
2022/07/09 11:42:01;;;;;;;2.22;2.05;;;21.40;64.60;;;;;;5055734;28;20044;-75
2022/07/09 11:44:28;;;;;;;3.72;2.00;;;21.70;63.80;;;;;;5053175;28;20079;-75
2022/07/09 11:47:30;;;;;;;2.13;1.33;;;21.80;59.70;;;;;;5053142;28;20017;-76
2022/07/09 11:50:08;;;;;;;2.55;1.73;;;22.20;59.20;;;;;;5052166;28;20033;-75
2022/07/09 11:52:34;;;;;;;2.05;1.60;;;22.40;57.70;;;;;;5051191;28;20443;-75
2022/07/09 11:55:05;;;;;;;3.30;1.35;;;22.50;56.90;;;;;;5053911;28;20075;-74
2022/07/09 11:57:34;;;;;;;2.42;1.40;;;22.60;56.60;;;;;;5053801;28;20405;-74
2022/07/09 12:00:02;;;;;;;5.13;1.60;;;22.50;54.20;;;;;;5055807;28;20017;-74
2022/07/09 12:02:33;;;;;;;3.97;1.42;;;22.40;52.80;;;;;;5051789;28;20021;-75
2022/07/09 12:05:07;;;;;;;2.03;1.10;;;22.70;53.90;;;;;;5057577;28;20101;-75
2022/07/09 12:07:37;;;;;;;2.30;1.30;;;22.60;52.20;;;;;;5054532;28;20029;-75
2022/07/09 12:10:09;;;;;;;3.45;1.90;;;22.50;51.60;;;;;;5050058;28;20070;-75
2022/07/09 12:12:36;;;;;;;7.35;1.45;;;22.30;52.00;;;;;;5053727;28;20116;-75
2022/07/09 12:15:04;;;;;;;3.42;1.70;;;21.90;51.80;;;;;;5055321;28;20075;-75
2022/07/09 12:17:31;;;;;;;3.03;1.40;;;21.70;52.20;;;;;;5055850;28;20017;-75
2022/07/09 12:19:58;;;;;;;4.22;1.65;;;21.60;53.70;;;;;;5052490;28;20116;-74
2022/07/09 12:22:25;;;;;;;1.70;1.60;;;21.60;54.50;;;;;;5054081;28;20021;-75
2022/07/09 12:24:52;;;;;;;2.45;1.70;;;21.70;54.70;;;;;;5051584;28;20045;-75
2022/07/09 12:27:18;;;;;;;2.40;1.60;;;21.90;53.90;;;;;;5049643;28;20021;-75
2022/07/09 12:29:44;;;;;;;2.30;1.15;;;22.10;53.80;;;;;;5055534;28;20469;-75
2022/07/09 12:32:09;;;;;;;2.47;1.75;;;22.20;50.20;;;;;;5054123;28;20140;-75
2022/07/09 12:34:36;;;;;;;4.03;2.03;;;22.50;50.10;;;;;;5054934;28;20486;-70
2022/07/09 12:37:02;;;;;;;4.03;1.80;;;22.50;49.60;;;;;;5048770;28;20100;-70
2022/07/09 12:39:27;;;;;;;3.63;1.42;;;22.70;51.00;;;;;;5051190;28;20029;-70
2022/07/09 12:41:53;;;;;;;4.72;2.20;;;22.60;49.60;;;;;;5056270;28;20067;-71
2022/07/09 12:44:19;;;;;;;2.85;1.80;;;22.50;49.80;;;;;;5049714;28;20037;-70